createdAt,value
2023-05-24T00:00:22.516Z,7.65
2023-05-24T00:04:45.826Z,7.20
2023-05-24T00:09:08.586Z,7.28
2023-05-24T00:13:30.779Z,7.13
2023-05-24T00:17:53.270Z,6.28
2023-05-24T00:22:15.425Z,6.70
2023-05-24T00:26:37.416Z,7.35
2023-05-24T00:31:00.594Z,6.05
2023-05-24T00:35:23.834Z,6.97
2023-05-24T00:39:46.140Z,6.30
2023-05-24T00:44:11.221Z,6.32
2023-05-24T00:48:33.438Z,5.50
2023-05-24T00:52:56.238Z,5.47
2023-05-24T00:57:19.255Z,6.93
2023-05-24T01:01:43.097Z,6.50
2023-05-24T01:06:08.052Z,6.82
2023-05-24T01:10:59.709Z,6.03
2023-05-24T01:15:33.757Z,6.18
2023-05-24T01:20:10.409Z,7.65
2023-05-24T01:24:55.723Z,6.85
2023-05-24T01:29:18.312Z,7.53
2023-05-24T01:33:44.540Z,6.95
2023-05-24T01:38:13.267Z,7.35
2023-05-24T01:42:56.627Z,6.85
2023-05-24T01:47:28.189Z,5.97
2023-05-24T01:52:16.327Z,6.20
2023-05-24T01:56:39.199Z,5.78
2023-05-24T02:01:01.948Z,5.63
2023-05-24T02:05:24.208Z,5.22
2023-05-24T02:09:46.096Z,5.57
2023-05-24T02:14:09.208Z,5.43
2023-05-24T02:18:35.060Z,5.95
2023-05-24T02:23:00.557Z,5.78
2023-05-24T02:27:22.530Z,5.20
2023-05-24T02:31:44.817Z,5.00
2023-05-24T02:36:07.176Z,5.43
2023-05-24T02:40:29.279Z,6.03
2023-05-24T02:44:52.831Z,6.18
2023-05-24T02:49:15.050Z,5.82
2023-05-24T02:53:36.991Z,5.15
2023-05-24T02:57:58.909Z,4.85
2023-05-24T03:02:22.209Z,5.65
2023-05-24T03:06:44.422Z,5.85
2023-05-24T03:11:07.285Z,5.57
2023-05-24T03:15:30.893Z,5.65
2023-05-24T03:19:53.296Z,5.55
2023-05-24T03:24:15.535Z,5.43
2023-05-24T03:28:37.410Z,6.00
2023-05-24T03:33:00.463Z,5.15
2023-05-24T03:37:22.742Z,5.05
2023-05-24T03:41:45.070Z,5.90
2023-05-24T03:46:11.397Z,5.88
2023-05-24T03:50:33.709Z,5.53
2023-05-24T03:54:56.148Z,4.78
2023-05-24T03:59:18.087Z,5.72
2023-05-24T04:03:41.517Z,4.97
2023-05-24T04:08:03.890Z,6.07
2023-05-24T04:12:26.137Z,4.75
2023-05-24T04:16:48.622Z,5.10
2023-05-24T04:21:11.338Z,5.38
2023-05-24T04:25:36.483Z,5.20
2023-05-24T04:30:00.985Z,5.25
2023-05-24T04:34:23.548Z,6.53
2023-05-24T04:38:46.567Z,5.43
2023-05-24T04:43:10.938Z,5.45
2023-05-24T04:47:32.818Z,4.10
2023-05-24T04:51:55.304Z,5.22
2023-05-24T04:56:17.849Z,4.57
2023-05-24T05:00:40.515Z,5.03
2023-05-24T05:05:02.607Z,4.32
2023-05-24T05:09:24.986Z,4.72
2023-05-24T05:13:46.929Z,5.05
2023-05-24T05:18:08.946Z,4.32
2023-05-24T05:22:31.424Z,3.95
2023-05-24T05:26:53.544Z,4.88
2023-05-24T05:31:15.646Z,5.38
2023-05-24T05:35:37.742Z,5.07
2023-05-24T05:40:00.252Z,4.35
2023-05-24T05:44:22.685Z,4.43
2023-05-24T05:48:46.447Z,4.72
2023-05-24T05:53:08.885Z,4.03
2023-05-24T05:57:31.064Z,4.50
2023-05-24T06:01:53.438Z,4.32
2023-05-24T06:06:15.666Z,5.53
2023-05-24T06:10:37.535Z,4.55
2023-05-24T06:15:00.035Z,5.55
2023-05-24T06:19:22.325Z,5.40
2023-05-24T06:23:44.706Z,4.05
2023-05-24T06:28:06.865Z,5.25
2023-05-24T06:32:29.066Z,4.25
2023-05-24T06:36:53.345Z,5.40
2023-05-24T06:41:16.352Z,4.80
2023-05-24T06:45:38.390Z,5.35
2023-05-24T06:50:01.249Z,4.93
2023-05-24T06:54:23.209Z,4.70
2023-05-24T06:58:45.488Z,5.30
2023-05-24T07:03:07.957Z,5.10
2023-05-24T07:07:30.255Z,4.32
2023-05-24T07:11:53.136Z,4.50
2023-05-24T07:16:15.424Z,4.97
2023-05-24T07:20:37.927Z,4.30
2023-05-24T07:25:00.398Z,4.13
2023-05-24T07:29:22.845Z,4.10
2023-05-24T07:33:44.785Z,4.38
2023-05-24T07:38:07.289Z,4.85
2023-05-24T07:42:29.654Z,5.07
2023-05-24T07:46:52.280Z,4.80
2023-05-24T07:51:15.015Z,4.95
2023-05-24T07:55:37.235Z,4.90
2023-05-24T07:59:59.208Z,4.90
2023-05-24T08:04:21.873Z,5.18
2023-05-24T08:08:44.128Z,4.55
2023-05-24T08:13:06.389Z,4.38
2023-05-24T08:17:28.760Z,4.50
2023-05-24T08:21:50.986Z,5.30
2023-05-24T08:26:13.360Z,5.35
2023-05-24T08:30:35.705Z,3.92
2023-05-24T08:35:06.714Z,5.00
2023-05-24T08:39:33.193Z,4.72
2023-05-24T08:43:58.109Z,4.60
2023-05-24T08:48:21.305Z,5.10
2023-05-24T08:52:44.390Z,3.80
2023-05-24T08:57:07.829Z,4.07
2023-05-24T09:01:33.333Z,4.78
2023-05-24T09:05:57.023Z,4.22
2023-05-24T09:10:24.047Z,4.35
2023-05-24T09:14:47.680Z,3.92
2023-05-24T09:19:10.051Z,4.82
2023-05-24T09:23:32.308Z,4.30
2023-05-24T09:27:56.968Z,4.20
2023-05-24T09:32:23.750Z,4.78
2023-05-24T09:36:48.698Z,4.20
2023-05-24T09:41:11.287Z,4.03
2023-05-24T09:45:33.617Z,4.25
2023-05-24T09:49:55.925Z,5.25
2023-05-24T09:54:18.912Z,4.90
2023-05-24T09:58:42.487Z,4.43
2023-05-24T10:03:07.640Z,3.95
2023-05-24T10:07:30.893Z,4.47
2023-05-24T10:11:53.527Z,4.25
2023-05-24T10:16:16.790Z,4.03
2023-05-24T10:20:41.686Z,3.85
2023-05-24T10:25:06.739Z,4.88
2023-05-24T10:29:47.278Z,4.78
2023-05-24T10:34:10.633Z,4.78
2023-05-24T10:38:33.459Z,4.85
2023-05-24T10:42:55.827Z,4.22
2023-05-24T10:47:21.747Z,4.43
2023-05-24T10:51:44.145Z,4.38
2023-05-24T10:56:09.949Z,4.68
2023-05-24T11:00:41.446Z,4.55
2023-05-24T11:05:06.325Z,4.28
2023-05-24T11:09:29.970Z,4.53
2023-05-24T11:13:59.954Z,4.40
2023-05-24T11:18:24.157Z,4.15
2023-05-24T11:22:47.016Z,4.57
2023-05-24T11:27:13.391Z,5.03
2023-05-24T11:31:43.131Z,4.50
2023-05-24T11:36:08.092Z,4.55
2023-05-24T11:40:30.629Z,5.13
2023-05-24T11:44:54.221Z,4.28
2023-05-24T11:49:17.709Z,4.75
2023-05-24T11:53:39.670Z,4.78
2023-05-24T11:58:06.408Z,4.90
2023-05-24T12:02:31.415Z,4.38
2023-05-24T12:06:53.430Z,4.75
2023-05-24T12:11:17.406Z,4.32
2023-05-24T12:15:39.281Z,5.10
2023-05-24T12:20:03.939Z,4.75
2023-05-24T12:24:28.533Z,4.32
2023-05-24T12:28:55.311Z,3.85
2023-05-24T12:33:21.330Z,4.45
2023-05-24T12:37:43.831Z,4.38
2023-05-24T12:42:06.357Z,4.22
2023-05-24T12:46:28.509Z,4.28
2023-05-24T12:50:51.456Z,4.20
2023-05-24T12:55:17.173Z,4.82
2023-05-24T12:59:39.363Z,4.60
2023-05-24T13:04:01.886Z,5.05
2023-05-24T13:08:24.666Z,3.58
2023-05-24T13:12:47.829Z,4.75
2023-05-24T13:17:10.120Z,4.72
2023-05-24T13:21:32.886Z,3.92
2023-05-24T13:25:55.877Z,4.30
2023-05-24T13:30:28.032Z,5.03
2023-05-24T13:34:50.452Z,4.50
2023-05-24T13:39:16.552Z,4.10
2023-05-24T13:43:39.503Z,4.13
2023-05-24T13:48:04.181Z,4.55
2023-05-24T13:52:29.436Z,4.63
2023-05-24T13:56:52.206Z,4.07
2023-05-24T14:01:14.771Z,5.00
2023-05-24T14:05:37.984Z,4.45
2023-05-24T14:10:00.291Z,3.90
2023-05-24T14:14:58.340Z,4.78
2023-05-24T14:19:04.746Z,4.45
2023-05-24T14:23:27.823Z,4.18
2023-05-24T14:27:50.059Z,4.45
2023-05-24T14:32:12.079Z,5.40
2023-05-24T14:36:34.345Z,4.88
2023-05-24T14:41:00.686Z,4.40
2023-05-24T14:45:23.005Z,4.78
2023-05-24T14:49:45.144Z,4.50
2023-05-24T14:54:07.493Z,5.63
2023-05-24T14:58:29.468Z,5.15
2023-05-24T15:02:51.687Z,5.43
2023-05-24T15:07:13.964Z,4.53
2023-05-24T15:11:36.699Z,4.28
2023-05-24T15:16:00.769Z,4.05
2023-05-24T15:20:22.945Z,3.88
2023-05-24T15:24:45.526Z,4.93
2023-05-24T15:29:07.860Z,4.43
2023-05-24T15:33:30.751Z,5.13
2023-05-24T15:37:52.904Z,3.97
2023-05-24T15:42:16.107Z,4.05
2023-05-24T15:46:40.030Z,4.13
2023-05-24T15:51:32.519Z,4.20
2023-05-24T15:55:46.049Z,4.47
2023-05-24T16:00:09.213Z,4.10
2023-05-24T16:04:34.275Z,3.88
2023-05-24T16:08:56.933Z,3.67
2023-05-24T16:13:19.835Z,4.05
2023-05-24T16:17:42.240Z,3.92
2023-05-24T16:22:04.746Z,3.75
2023-05-24T16:26:29.089Z,3.90
2023-05-24T16:30:56.205Z,4.45
2023-05-24T16:35:18.792Z,4.18
2023-05-24T16:39:41.091Z,4.30
2023-05-24T16:44:07.395Z,3.90
2023-05-24T16:48:31.959Z,4.03
2023-05-24T16:52:54.652Z,5.30
2023-05-24T16:57:17.433Z,4.82
2023-05-24T17:01:43.121Z,4.20
2023-05-24T17:06:05.592Z,4.65
2023-05-24T17:10:28.101Z,5.60
2023-05-24T17:14:50.713Z,3.95
2023-05-24T17:19:35.115Z,3.97
2023-05-24T17:23:57.435Z,3.83
2023-05-24T17:28:19.782Z,4.65
2023-05-24T17:32:42.358Z,4.22
2023-05-24T17:37:05.000Z,3.80
2023-05-24T17:41:27.523Z,4.25
2023-05-24T17:45:49.988Z,4.05
2023-05-24T17:50:12.021Z,4.10
2023-05-24T17:54:34.360Z,4.30
2023-05-24T17:58:56.316Z,4.30
2023-05-24T18:03:18.705Z,6.05
2023-05-24T18:07:41.301Z,4.55
2023-05-24T18:12:03.876Z,4.65
2023-05-24T18:16:25.898Z,5.85
2023-05-24T18:20:48.407Z,4.68
2023-05-24T18:25:10.935Z,6.03
2023-05-24T18:29:33.126Z,4.13
2023-05-24T18:33:55.594Z,5.13
2023-05-24T18:38:17.658Z,4.93
2023-05-24T18:42:39.886Z,5.35
2023-05-24T18:47:01.946Z,5.20
2023-05-24T18:51:24.379Z,7.57
2023-05-24T18:55:47.655Z,8.38
2023-05-24T19:00:10.585Z,6.13
2023-05-24T19:04:32.983Z,7.93
2023-05-24T19:08:54.957Z,8.32
2023-05-24T19:13:17.313Z,7.45
2023-05-24T19:17:39.263Z,6.97
2023-05-24T19:22:01.180Z,8.13
2023-05-24T19:26:23.739Z,7.65
2023-05-24T19:30:45.795Z,7.47
2023-05-24T19:35:09.180Z,10.02
2023-05-24T19:39:31.068Z,7.30
2023-05-24T19:43:59.018Z,8.77
2023-05-24T19:48:25.346Z,8.50
2023-05-24T19:52:47.370Z,9.43
2023-05-24T19:57:10.909Z,9.27
2023-05-24T20:01:33.322Z,9.13
2023-05-24T20:05:56.927Z,10.32
2023-05-24T20:10:22.871Z,7.88
2023-05-24T20:14:45.120Z,8.10
2023-05-24T20:19:07.939Z,7.65
2023-05-24T20:23:31.293Z,8.15
2023-05-24T20:27:56.898Z,10.93
2023-05-24T20:32:22.300Z,8.65
2023-05-24T20:36:45.158Z,8.93
2023-05-24T20:41:08.403Z,7.82
2023-05-24T20:45:31.142Z,9.32
2023-05-24T20:49:55.679Z,8.70
2023-05-24T20:54:18.460Z,9.15
2023-05-24T20:58:41.585Z,9.13
2023-05-24T21:03:03.829Z,9.35
2023-05-24T21:07:26.262Z,10.32
2023-05-24T21:11:48.614Z,9.15
2023-05-24T21:16:11.163Z,9.82
2023-05-24T21:20:33.263Z,10.90
2023-05-24T21:24:56.801Z,9.23
2023-05-24T21:29:19.960Z,9.02
2023-05-24T21:33:44.395Z,10.35
2023-05-24T21:38:06.681Z,9.80
2023-05-24T21:42:29.102Z,10.20
2023-05-24T21:46:51.571Z,9.65
2023-05-24T21:51:15.770Z,9.68
2023-05-24T21:55:37.664Z,9.95
2023-05-24T21:59:59.925Z,10.45
2023-05-24T22:04:22.316Z,10.68
2023-05-24T22:08:44.532Z,11.18
2023-05-24T22:13:06.935Z,11.27
2023-05-24T22:17:33.285Z,11.43
2023-05-24T22:21:56.491Z,11.07
2023-05-24T22:26:18.641Z,11.35
2023-05-24T22:30:41.052Z,12.30
2023-05-24T22:35:03.180Z,13.20
2023-05-24T22:39:25.966Z,13.15
2023-05-24T22:43:48.218Z,13.02
2023-05-24T22:48:10.693Z,11.98
2023-05-24T22:52:35.625Z,12.57
2023-05-24T22:56:57.879Z,11.43
2023-05-24T23:01:20.212Z,11.98
2023-05-24T23:05:42.762Z,11.68
2023-05-24T23:10:05.628Z,11.10
2023-05-24T23:14:30.637Z,13.43
2023-05-24T23:18:52.674Z,12.20
2023-05-24T23:23:14.697Z,11.80
2023-05-24T23:27:37.038Z,12.90
2023-05-24T23:31:59.156Z,11.30
2023-05-24T23:36:21.287Z,12.50
2023-05-24T23:40:43.485Z,13.15
2023-05-24T23:45:06.831Z,12.70
2023-05-24T23:49:29.239Z,11.77
2023-05-24T23:53:51.443Z,12.30
2023-05-24T23:58:13.698Z,12.45
